sensor_id;sensor_type;location;lat;lon;timestamp;temperature;humidity
12815;DHT22;6472;52.328;13.070;2022-08-06T00:02:11;15.50;99.90
12815;DHT22;6472;52.328;13.070;2022-08-06T00:04:39;15.40;99.90
12815;DHT22;6472;52.328;13.070;2022-08-06T00:07:08;15.30;99.90
12815;DHT22;6472;52.328;13.070;2022-08-06T00:09:48;15.30;99.90
12815;DHT22;6472;52.328;13.070;2022-08-06T00:12:22;15.20;99.90
12815;DHT22;6472;52.328;13.070;2022-08-06T00:14:57;15.20;99.90
12815;DHT22;6472;52.328;13.070;2022-08-06T00:17:25;15.20;99.90
12815;DHT22;6472;52.328;13.070;2022-08-06T00:19:59;15.10;99.90
12815;DHT22;6472;52.328;13.070;2022-08-06T00:22:29;15.10;99.90
12815;DHT22;6472;52.328;13.070;2022-08-06T00:24:58;15.00;99.90
12815;DHT22;6472;52.328;13.070;2022-08-06T00:27:26;15.00;99.90
12815;DHT22;6472;52.328;13.070;2022-08-06T00:30:07;14.90;99.90
12815;DHT22;6472;52.328;13.070;2022-08-06T00:32:46;14.90;99.90
12815;DHT22;6472;52.328;13.070;2022-08-06T00:35:19;14.80;99.90
12815;DHT22;6472;52.328;13.070;2022-08-06T00:37:54;14.80;99.90
12815;DHT22;6472;52.328;13.070;2022-08-06T00:40:26;14.80;99.90
12815;DHT22;6472;52.328;13.070;2022-08-06T00:42:56;14.70;99.90
12815;DHT22;6472;52.328;13.070;2022-08-06T00:45:30;14.70;99.90
12815;DHT22;6472;52.328;13.070;2022-08-06T00:48:08;14.70;99.90
12815;DHT22;6472;52.328;13.070;2022-08-06T00:50:56;14.60;99.90
12815;DHT22;6472;52.328;13.070;2022-08-06T00:53:26;14.50;99.90
12815;DHT22;6472;52.328;13.070;2022-08-06T00:56:00;14.50;99.90
12815;DHT22;6472;52.328;13.070;2022-08-06T00:58:35;14.50;99.90
12815;DHT22;6472;52.328;13.070;2022-08-06T01:01:08;14.40;99.90
12815;DHT22;6472;52.328;13.070;2022-08-06T01:03:44;14.40;99.90
12815;DHT22;6472;52.328;13.070;2022-08-06T01:06:18;14.40;99.90
12815;DHT22;6472;52.328;13.070;2022-08-06T01:09:06;14.40;99.90
12815;DHT22;6472;52.328;13.070;2022-08-06T01:11:36;14.30;99.90
12815;DHT22;6472;52.328;13.070;2022-08-06T01:14:04;14.30;99.90
12815;DHT22;6472;52.328;13.070;2022-08-06T01:16:49;14.30;99.90
12815;DHT22;6472;52.328;13.070;2022-08-06T01:23:04;14.20;99.90
12815;DHT22;6472;52.328;13.070;2022-08-06T01:26:20;14.10;99.90
12815;DHT22;6472;52.328;13.070;2022-08-06T01:28:55;14.10;99.90
12815;DHT22;6472;52.328;13.070;2022-08-06T01:31:30;14.10;99.90
12815;DHT22;6472;52.328;13.070;2022-08-06T01:34:09;14.00;99.90
12815;DHT22;6472;52.328;13.070;2022-08-06T01:36:42;14.00;99.90
12815;DHT22;6472;52.328;13.070;2022-08-06T01:39:16;14.00;99.90
12815;DHT22;6472;52.328;13.070;2022-08-06T01:42:06;13.90;99.90
12815;DHT22;6472;52.328;13.070;2022-08-06T01:44:39;13.80;99.90
12815;DHT22;6472;52.328;13.070;2022-08-06T01:47:16;13.80;99.90
12815;DHT22;6472;52.328;13.070;2022-08-06T01:49:49;13.80;99.90
12815;DHT22;6472;52.328;13.070;2022-08-06T01:52:32;13.80;99.90
12815;DHT22;6472;52.328;13.070;2022-08-06T01:55:06;13.70;99.90
12815;DHT22;6472;52.328;13.070;2022-08-06T01:57:40;13.70;99.90
12815;DHT22;6472;52.328;13.070;2022-08-06T02:00:35;13.70;99.90
12815;DHT22;6472;52.328;13.070;2022-08-06T02:03:19;13.70;99.90
12815;DHT22;6472;52.328;13.070;2022-08-06T02:05:51;13.60;99.90
12815;DHT22;6472;52.328;13.070;2022-08-06T02:08:27;13.60;99.90
12815;DHT22;6472;52.328;13.070;2022-08-06T02:11:08;13.60;99.90
12815;DHT22;6472;52.328;13.070;2022-08-06T02:13:57;13.60;99.90
12815;DHT22;6472;52.328;13.070;2022-08-06T02:16:28;13.50;99.90
12815;DHT22;6472;52.328;13.070;2022-08-06T02:18:59;13.50;99.90
12815;DHT22;6472;52.328;13.070;2022-08-06T02:21:36;13.50;99.90
12815;DHT22;6472;52.328;13.070;2022-08-06T02:24:07;13.30;99.90
12815;DHT22;6472;52.328;13.070;2022-08-06T02:26:37;13.40;99.90
12815;DHT22;6472;52.328;13.070;2022-08-06T02:29:08;13.30;99.90
12815;DHT22;6472;52.328;13.070;2022-08-06T02:31:41;13.30;99.90
12815;DHT22;6472;52.328;13.070;2022-08-06T02:34:16;13.20;99.90
12815;DHT22;6472;52.328;13.070;2022-08-06T02:36:56;13.20;99.90
12815;DHT22;6472;52.328;13.070;2022-08-06T02:39:29;13.20;99.90
12815;DHT22;6472;52.328;13.070;2022-08-06T02:42:20;13.10;99.90
12815;DHT22;6472;52.328;13.070;2022-08-06T02:44:52;13.10;99.90
12815;DHT22;6472;52.328;13.070;2022-08-06T02:47:30;13.10;99.90
12815;DHT22;6472;52.328;13.070;2022-08-06T02:50:24;13.00;99.90
12815;DHT22;6472;52.328;13.070;2022-08-06T02:52:57;13.00;99.90
12815;DHT22;6472;52.328;13.070;2022-08-06T02:55:32;12.90;99.90
12815;DHT22;6472;52.328;13.070;2022-08-06T02:58:12;12.90;99.90
12815;DHT22;6472;52.328;13.070;2022-08-06T03:00:44;12.90;99.90
12815;DHT22;6472;52.328;13.070;2022-08-06T03:03:22;13.00;99.90
12815;DHT22;6472;52.328;13.070;2022-08-06T03:06:02;12.90;99.90
12815;DHT22;6472;52.328;13.070;2022-08-06T03:08:34;12.90;99.90
12815;DHT22;6472;52.328;13.070;2022-08-06T03:11:04;13.00;99.90
12815;DHT22;6472;52.328;13.070;2022-08-06T03:13:33;13.00;99.90
12815;DHT22;6472;52.328;13.070;2022-08-06T03:16:04;12.90;99.90
12815;DHT22;6472;52.328;13.070;2022-08-06T03:18:52;12.80;99.90
12815;DHT22;6472;52.328;13.070;2022-08-06T03:21:42;12.90;99.90
12815;DHT22;6472;52.328;13.070;2022-08-06T03:24:22;12.90;99.90
12815;DHT22;6472;52.328;13.070;2022-08-06T03:26:54;12.90;99.90
12815;DHT22;6472;52.328;13.070;2022-08-06T03:29:24;12.90;99.90
12815;DHT22;6472;52.328;13.070;2022-08-06T03:31:53;12.90;99.90
12815;DHT22;6472;52.328;13.070;2022-08-06T03:34:40;12.80;99.90
12815;DHT22;6472;52.328;13.070;2022-08-06T03:37:10;12.80;99.90
12815;DHT22;6472;52.328;13.070;2022-08-06T03:39:43;12.80;99.90
12815;DHT22;6472;52.328;13.070;2022-08-06T03:42:19;12.80;99.90
12815;DHT22;6472;52.328;13.070;2022-08-06T03:44:58;12.80;99.90
12815;DHT22;6472;52.328;13.070;2022-08-06T03:47:29;12.80;99.90
12815;DHT22;6472;52.328;13.070;2022-08-06T03:50:22;12.80;99.90
12815;DHT22;6472;52.328;13.070;2022-08-06T03:52:54;12.70;99.90
12815;DHT22;6472;52.328;13.070;2022-08-06T03:55:26;12.70;99.90
12815;DHT22;6472;52.328;13.070;2022-08-06T03:58:03;12.70;99.90
12815;DHT22;6472;52.328;13.070;2022-08-06T04:00:36;12.70;99.90
12815;DHT22;6472;52.328;13.070;2022-08-06T04:03:07;12.70;99.90
12815;DHT22;6472;52.328;13.070;2022-08-06T04:05:40;12.70;99.90
12815;DHT22;6472;52.328;13.070;2022-08-06T04:08:14;12.70;99.90
12815;DHT22;6472;52.328;13.070;2022-08-06T04:10:44;12.70;99.90
12815;DHT22;6472;52.328;13.070;2022-08-06T04:13:25;12.70;99.90
12815;DHT22;6472;52.328;13.070;2022-08-06T04:16:14;12.70;99.90
12815;DHT22;6472;52.328;13.070;2022-08-06T04:19:03;12.70;99.90
12815;DHT22;6472;52.328;13.070;2022-08-06T04:21:36;12.70;99.90
12815;DHT22;6472;52.328;13.070;2022-08-06T04:24:25;12.70;99.90
12815;DHT22;6472;52.328;13.070;2022-08-06T04:27:00;12.80;99.90
12815;DHT22;6472;52.328;13.070;2022-08-06T04:29:36;12.80;99.90
12815;DHT22;6472;52.328;13.070;2022-08-06T04:32:25;12.70;99.90
12815;DHT22;6472;52.328;13.070;2022-08-06T04:34:56;12.80;99.90
12815;DHT22;6472;52.328;13.070;2022-08-06T04:37:46;12.70;99.90
12815;DHT22;6472;52.328;13.070;2022-08-06T04:40:19;12.70;99.90
12815;DHT22;6472;52.328;13.070;2022-08-06T04:43:01;12.80;99.90
12815;DHT22;6472;52.328;13.070;2022-08-06T04:45:31;12.80;99.90
12815;DHT22;6472;52.328;13.070;2022-08-06T04:48:20;12.80;99.90
12815;DHT22;6472;52.328;13.070;2022-08-06T04:50:50;12.80;99.90
12815;DHT22;6472;52.328;13.070;2022-08-06T04:53:22;12.80;99.90
12815;DHT22;6472;52.328;13.070;2022-08-06T04:56:10;12.80;99.90
12815;DHT22;6472;52.328;13.070;2022-08-06T04:58:42;12.90;99.90
12815;DHT22;6472;52.328;13.070;2022-08-06T05:01:10;12.90;99.90
12815;DHT22;6472;52.328;13.070;2022-08-06T05:03:38;12.90;99.90
12815;DHT22;6472;52.328;13.070;2022-08-06T05:06:33;12.90;99.90
12815;DHT22;6472;52.328;13.070;2022-08-06T05:09:09;12.90;99.90
12815;DHT22;6472;52.328;13.070;2022-08-06T05:12:01;12.90;99.90
12815;DHT22;6472;52.328;13.070;2022-08-06T05:14:37;12.90;99.90
12815;DHT22;6472;52.328;13.070;2022-08-06T05:17:07;12.90;99.90
12815;DHT22;6472;52.328;13.070;2022-08-06T05:19:43;12.90;99.90
12815;DHT22;6472;52.328;13.070;2022-08-06T05:22:13;12.90;99.90
12815;DHT22;6472;52.328;13.070;2022-08-06T05:25:06;13.00;99.90
12815;DHT22;6472;52.328;13.070;2022-08-06T05:27:43;13.20;99.90
12815;DHT22;6472;52.328;13.070;2022-08-06T05:30:32;13.30;99.90
12815;DHT22;6472;52.328;13.070;2022-08-06T05:33:00;13.50;99.90
12815;DHT22;6472;52.328;13.070;2022-08-06T05:35:28;13.60;99.90
12815;DHT22;6472;52.328;13.070;2022-08-06T05:38:11;13.90;99.90
12815;DHT22;6472;52.328;13.070;2022-08-06T05:40:58;14.30;99.90
12815;DHT22;6472;52.328;13.070;2022-08-06T05:43:27;14.50;99.90
12815;DHT22;6472;52.328;13.070;2022-08-06T05:46:17;14.90;99.90
12815;DHT22;6472;52.328;13.070;2022-08-06T05:48:54;15.10;99.90
12815;DHT22;6472;52.328;13.070;2022-08-06T05:51:32;15.10;99.90
12815;DHT22;6472;52.328;13.070;2022-08-06T05:54:13;15.20;99.90
12815;DHT22;6472;52.328;13.070;2022-08-06T05:56:46;15.40;99.90
12815;DHT22;6472;52.328;13.070;2022-08-06T05:59:24;15.40;99.90
12815;DHT22;6472;52.328;13.070;2022-08-06T06:02:13;15.40;99.90
12815;DHT22;6472;52.328;13.070;2022-08-06T06:04:46;15.50;99.90
12815;DHT22;6472;52.328;13.070;2022-08-06T06:07:35;15.80;99.90
12815;DHT22;6472;52.328;13.070;2022-08-06T06:10:24;15.80;99.90
12815;DHT22;6472;52.328;13.070;2022-08-06T06:12:54;16.00;99.90
12815;DHT22;6472;52.328;13.070;2022-08-06T06:15:23;16.10;99.90
12815;DHT22;6472;52.328;13.070;2022-08-06T06:18:20;16.10;99.90
12815;DHT22;6472;52.328;13.070;2022-08-06T06:21:10;16.40;99.90
12815;DHT22;6472;52.328;13.070;2022-08-06T06:24:04;16.20;99.90
12815;DHT22;6472;52.328;13.070;2022-08-06T06:26:39;16.20;99.90
12815;DHT22;6472;52.328;13.070;2022-08-06T06:29:33;16.60;99.90
12815;DHT22;6472;52.328;13.070;2022-08-06T06:32:37;16.70;99.90
12815;DHT22;6472;52.328;13.070;2022-08-06T06:35:16;16.90;99.90
12815;DHT22;6472;52.328;13.070;2022-08-06T06:37:54;17.10;99.90
12815;DHT22;6472;52.328;13.070;2022-08-06T06:40:41;17.20;99.90
12815;DHT22;6472;52.328;13.070;2022-08-06T06:43:33;17.20;99.90
12815;DHT22;6472;52.328;13.070;2022-08-06T06:46:17;17.20;99.90
12815;DHT22;6472;52.328;13.070;2022-08-06T06:49:09;17.20;99.90
12815;DHT22;6472;52.328;13.070;2022-08-06T06:52:02;17.30;99.90
12815;DHT22;6472;52.328;13.070;2022-08-06T06:54:38;17.50;99.90
12815;DHT22;6472;52.328;13.070;2022-08-06T06:57:10;17.40;99.90
12815;DHT22;6472;52.328;13.070;2022-08-06T06:59:45;17.70;99.90
12815;DHT22;6472;52.328;13.070;2022-08-06T07:02:37;17.80;99.90
12815;DHT22;6472;52.328;13.070;2022-08-06T07:05:08;17.60;99.90
12815;DHT22;6472;52.328;13.070;2022-08-06T07:07:44;17.90;99.90
12815;DHT22;6472;52.328;13.070;2022-08-06T07:10:17;18.00;99.90
12815;DHT22;6472;52.328;13.070;2022-08-06T07:12:48;18.10;99.90
12815;DHT22;6472;52.328;13.070;2022-08-06T07:15:20;18.10;99.90
12815;DHT22;6472;52.328;13.070;2022-08-06T07:17:51;18.00;99.90
12815;DHT22;6472;52.328;13.070;2022-08-06T07:20:35;18.30;99.90
12815;DHT22;6472;52.328;13.070;2022-08-06T07:23:08;18.40;99.90
12815;DHT22;6472;52.328;13.070;2022-08-06T07:25:58;18.40;99.90
12815;DHT22;6472;52.328;13.070;2022-08-06T07:28:27;18.50;99.90
12815;DHT22;6472;52.328;13.070;2022-08-06T07:31:02;18.60;99.90
12815;DHT22;6472;52.328;13.070;2022-08-06T07:33:39;18.60;99.90
12815;DHT22;6472;52.328;13.070;2022-08-06T07:36:29;18.60;99.90
12815;DHT22;6472;52.328;13.070;2022-08-06T07:39:07;18.70;99.90
12815;DHT22;6472;52.328;13.070;2022-08-06T07:41:42;18.80;99.90
12815;DHT22;6472;52.328;13.070;2022-08-06T07:44:34;19.00;99.90
12815;DHT22;6472;52.328;13.070;2022-08-06T07:47:27;19.00;99.90
12815;DHT22;6472;52.328;13.070;2022-08-06T07:50:14;19.30;99.90
12815;DHT22;6472;52.328;13.070;2022-08-06T07:52:43;19.10;99.90
12815;DHT22;6472;52.328;13.070;2022-08-06T07:55:12;19.00;99.90
12815;DHT22;6472;52.328;13.070;2022-08-06T07:57:42;19.00;99.90
12815;DHT22;6472;52.328;13.070;2022-08-06T08:00:22;19.10;99.50
12815;DHT22;6472;52.328;13.070;2022-08-06T08:02:55;19.10;99.70
12815;DHT22;6472;52.328;13.070;2022-08-06T08:06:03;19.00;99.90
12815;DHT22;6472;52.328;13.070;2022-08-06T08:08:51;18.70;99.90
12815;DHT22;6472;52.328;13.070;2022-08-06T08:11:23;19.00;99.90
12815;DHT22;6472;52.328;13.070;2022-08-06T08:14:13;19.20;99.90
12815;DHT22;6472;52.328;13.070;2022-08-06T08:16:45;19.30;99.20
12815;DHT22;6472;52.328;13.070;2022-08-06T08:19:22;19.50;99.00
12815;DHT22;6472;52.328;13.070;2022-08-06T08:21:52;19.70;99.10
12815;DHT22;6472;52.328;13.070;2022-08-06T08:24:23;19.80;98.70
12815;DHT22;6472;52.328;13.070;2022-08-06T08:26:52;19.80;99.30
12815;DHT22;6472;52.328;13.070;2022-08-06T08:29:41;20.00;98.80
12815;DHT22;6472;52.328;13.070;2022-08-06T08:32:21;19.80;95.20
12815;DHT22;6472;52.328;13.070;2022-08-06T08:34:49;19.80;95.10
12815;DHT22;6472;52.328;13.070;2022-08-06T08:37:21;19.80;95.70
12815;DHT22;6472;52.328;13.070;2022-08-06T08:39:49;20.00;97.10
12815;DHT22;6472;52.328;13.070;2022-08-06T08:42:27;20.20;94.30
12815;DHT22;6472;52.328;13.070;2022-08-06T08:44:59;20.40;92.00
12815;DHT22;6472;52.328;13.070;2022-08-06T08:47:29;20.50;92.00
12815;DHT22;6472;52.328;13.070;2022-08-06T08:50:19;20.60;91.70
12815;DHT22;6472;52.328;13.070;2022-08-06T08:52:51;20.70;91.70
12815;DHT22;6472;52.328;13.070;2022-08-06T08:55:24;20.20;90.40
12815;DHT22;6472;52.328;13.070;2022-08-06T08:58:12;19.80;90.50
12815;DHT22;6472;52.328;13.070;2022-08-06T09:01:04;19.30;91.40
12815;DHT22;6472;52.328;13.070;2022-08-06T09:03:34;19.50;93.50
12815;DHT22;6472;52.328;13.070;2022-08-06T09:06:12;19.90;92.70
12815;DHT22;6472;52.328;13.070;2022-08-06T09:08:58;20.10;90.10
12815;DHT22;6472;52.328;13.070;2022-08-06T09:11:31;20.30;92.40
12815;DHT22;6472;52.328;13.070;2022-08-06T09:14:20;20.50;91.20
12815;DHT22;6472;52.328;13.070;2022-08-06T09:16:59;20.10;90.30
12815;DHT22;6472;52.328;13.070;2022-08-06T09:19:27;20.20;90.90
12815;DHT22;6472;52.328;13.070;2022-08-06T09:22:07;20.20;90.10
12815;DHT22;6472;52.328;13.070;2022-08-06T09:24:39;20.30;89.50
12815;DHT22;6472;52.328;13.070;2022-08-06T09:27:09;20.40;87.80
12815;DHT22;6472;52.328;13.070;2022-08-06T09:29:59;20.50;89.70
12815;DHT22;6472;52.328;13.070;2022-08-06T09:32:47;20.50;84.50
12815;DHT22;6472;52.328;13.070;2022-08-06T09:35:25;20.30;82.60
12815;DHT22;6472;52.328;13.070;2022-08-06T09:38:11;20.20;80.10
12815;DHT22;6472;52.328;13.070;2022-08-06T09:41:06;20.30;82.30
12815;DHT22;6472;52.328;13.070;2022-08-06T09:43:42;20.40;85.40
12815;DHT22;6472;52.328;13.070;2022-08-06T09:46:38;20.30;82.10
12815;DHT22;6472;52.328;13.070;2022-08-06T09:49:08;20.40;81.60
12815;DHT22;6472;52.328;13.070;2022-08-06T09:52:14;20.60;82.20
12815;DHT22;6472;52.328;13.070;2022-08-06T09:54:43;20.60;79.60
12815;DHT22;6472;52.328;13.070;2022-08-06T09:57:22;20.70;77.80
12815;DHT22;6472;52.328;13.070;2022-08-06T10:00:01;20.50;77.40
12815;DHT22;6472;52.328;13.070;2022-08-06T10:02:33;20.40;77.60
12815;DHT22;6472;52.328;13.070;2022-08-06T10:05:08;20.30;77.30
12815;DHT22;6472;52.328;13.070;2022-08-06T10:07:45;20.40;77.60
12815;DHT22;6472;52.328;13.070;2022-08-06T10:13:16;20.80;75.20
12815;DHT22;6472;52.328;13.070;2022-08-06T10:15:46;20.70;74.90
12815;DHT22;6472;52.328;13.070;2022-08-06T10:18:36;20.60;75.80
12815;DHT22;6472;52.328;13.070;2022-08-06T10:21:25;20.50;74.00
12815;DHT22;6472;52.328;13.070;2022-08-06T10:24:07;20.40;73.90
12815;DHT22;6472;52.328;13.070;2022-08-06T10:26:36;20.30;75.40
12815;DHT22;6472;52.328;13.070;2022-08-06T10:29:11;20.40;76.10
12815;DHT22;6472;52.328;13.070;2022-08-06T10:31:43;20.40;72.70
12815;DHT22;6472;52.328;13.070;2022-08-06T10:34:26;20.70;72.80
12815;DHT22;6472;52.328;13.070;2022-08-06T10:37:00;20.60;73.10
12815;DHT22;6472;52.328;13.070;2022-08-06T10:39:51;20.70;72.40
12815;DHT22;6472;52.328;13.070;2022-08-06T10:42:36;20.80;72.60
12815;DHT22;6472;52.328;13.070;2022-08-06T10:45:08;21.10;72.50
12815;DHT22;6472;52.328;13.070;2022-08-06T10:47:44;21.10;68.50
12815;DHT22;6472;52.328;13.070;2022-08-06T10:50:33;20.80;68.40
12815;DHT22;6472;52.328;13.070;2022-08-06T10:53:14;20.80;70.30
12815;DHT22;6472;52.328;13.070;2022-08-06T10:56:04;20.70;70.90
12815;DHT22;6472;52.328;13.070;2022-08-06T10:58:35;20.60;70.00
12815;DHT22;6472;52.328;13.070;2022-08-06T11:01:07;20.40;67.40
12815;DHT22;6472;52.328;13.070;2022-08-06T11:03:44;20.30;68.40
12815;DHT22;6472;52.328;13.070;2022-08-06T11:06:42;20.40;69.70
12815;DHT22;6472;52.328;13.070;2022-08-06T11:09:31;20.50;68.70
12815;DHT22;6472;52.328;13.070;2022-08-06T11:12:35;20.80;67.40
12815;DHT22;6472;52.328;13.070;2022-08-06T11:15:13;20.90;69.40
12815;DHT22;6472;52.328;13.070;2022-08-06T11:17:45;20.80;68.50
12815;DHT22;6472;52.328;13.070;2022-08-06T11:20:35;20.70;68.00
12815;DHT22;6472;52.328;13.070;2022-08-06T11:23:05;20.60;69.90
12815;DHT22;6472;52.328;13.070;2022-08-06T11:26:08;20.60;71.60
12815;DHT22;6472;52.328;13.070;2022-08-06T11:28:56;20.70;68.30
12815;DHT22;6472;52.328;13.070;2022-08-06T11:31:36;20.80;67.60
12815;DHT22;6472;52.328;13.070;2022-08-06T11:34:51;20.90;66.00
12815;DHT22;6472;52.328;13.070;2022-08-06T11:37:43;20.90;65.10
12815;DHT22;6472;52.328;13.070;2022-08-06T11:40:52;20.90;66.40
12815;DHT22;6472;52.328;13.070;2022-08-06T11:43:46;20.80;65.50
12815;DHT22;6472;52.328;13.070;2022-08-06T11:46:31;20.90;66.90
12815;DHT22;6472;52.328;13.070;2022-08-06T11:49:34;21.00;64.10
12815;DHT22;6472;52.328;13.070;2022-08-06T11:52:38;21.00;64.80
12815;DHT22;6472;52.328;13.070;2022-08-06T11:55:08;21.00;66.70
12815;DHT22;6472;52.328;13.070;2022-08-06T11:57:48;21.00;67.40
12815;DHT22;6472;52.328;13.070;2022-08-06T12:00:21;21.00;65.20
12815;DHT22;6472;52.328;13.070;2022-08-06T12:02:57;21.00;66.20
12815;DHT22;6472;52.328;13.070;2022-08-06T12:05:36;20.90;64.30
12815;DHT22;6472;52.328;13.070;2022-08-06T12:08:27;20.80;66.30
12815;DHT22;6472;52.328;13.070;2022-08-06T12:11:22;20.70;65.00
12815;DHT22;6472;52.328;13.070;2022-08-06T12:13:52;20.70;66.20
12815;DHT22;6472;52.328;13.070;2022-08-06T12:16:40;20.60;66.00
12815;DHT22;6472;52.328;13.070;2022-08-06T12:19:21;20.60;66.40
12815;DHT22;6472;52.328;13.070;2022-08-06T12:21:51;20.70;66.60
12815;DHT22;6472;52.328;13.070;2022-08-06T12:24:24;20.90;64.80
12815;DHT22;6472;52.328;13.070;2022-08-06T12:27:14;21.00;64.70
12815;DHT22;6472;52.328;13.070;2022-08-06T12:29:54;21.30;64.50
12815;DHT22;6472;52.328;13.070;2022-08-06T12:32:27;21.30;63.00
12815;DHT22;6472;52.328;13.070;2022-08-06T12:34:57;21.10;63.00
12815;DHT22;6472;52.328;13.070;2022-08-06T12:37:36;21.00;63.50
12815;DHT22;6472;52.328;13.070;2022-08-06T12:40:16;21.00;61.90
12815;DHT22;6472;52.328;13.070;2022-08-06T12:43:10;20.90;62.90
12815;DHT22;6472;52.328;13.070;2022-08-06T12:45:42;20.90;62.80
12815;DHT22;6472;52.328;13.070;2022-08-06T12:48:31;20.70;60.00
12815;DHT22;6472;52.328;13.070;2022-08-06T12:51:05;20.60;61.60
12815;DHT22;6472;52.328;13.070;2022-08-06T12:53:41;20.70;61.10
12815;DHT22;6472;52.328;13.070;2022-08-06T12:56:15;21.00;62.00
12815;DHT22;6472;52.328;13.070;2022-08-06T12:59:00;21.50;60.50
12815;DHT22;6472;52.328;13.070;2022-08-06T13:01:33;21.80;59.60
12815;DHT22;6472;52.328;13.070;2022-08-06T13:04:22;22.40;61.10
12815;DHT22;6472;52.328;13.070;2022-08-06T13:06:58;22.80;59.90
12815;DHT22;6472;52.328;13.070;2022-08-06T13:09:30;23.00;59.00
12815;DHT22;6472;52.328;13.070;2022-08-06T13:12:16;23.00;57.10
12815;DHT22;6472;52.328;13.070;2022-08-06T13:14:56;23.20;59.50
12815;DHT22;6472;52.328;13.070;2022-08-06T13:18:00;23.40;57.70
12815;DHT22;6472;52.328;13.070;2022-08-06T13:20:35;23.60;58.40
12815;DHT22;6472;52.328;13.070;2022-08-06T13:23:04;24.00;56.50
12815;DHT22;6472;52.328;13.070;2022-08-06T13:25:40;24.30;56.80
12815;DHT22;6472;52.328;13.070;2022-08-06T13:28:22;24.30;55.90
12815;DHT22;6472;52.328;13.070;2022-08-06T13:30:55;24.60;57.40
12815;DHT22;6472;52.328;13.070;2022-08-06T13:33:27;24.80;55.10
12815;DHT22;6472;52.328;13.070;2022-08-06T13:36:05;24.60;54.80
12815;DHT22;6472;52.328;13.070;2022-08-06T13:38:38;24.60;55.60
12815;DHT22;6472;52.328;13.070;2022-08-06T13:41:08;24.70;55.60
12815;DHT22;6472;52.328;13.070;2022-08-06T13:43:41;25.00;55.20
12815;DHT22;6472;52.328;13.070;2022-08-06T13:46:22;25.20;52.70
12815;DHT22;6472;52.328;13.070;2022-08-06T13:48:56;24.90;52.80
12815;DHT22;6472;52.328;13.070;2022-08-06T13:51:28;25.10;52.60
12815;DHT22;6472;52.328;13.070;2022-08-06T13:54:02;25.00;51.80
12815;DHT22;6472;52.328;13.070;2022-08-06T13:56:45;24.90;52.50
12815;DHT22;6472;52.328;13.070;2022-08-06T13:59:20;24.90;51.30
12815;DHT22;6472;52.328;13.070;2022-08-06T14:02:08;25.00;53.00
12815;DHT22;6472;52.328;13.070;2022-08-06T14:04:37;25.20;51.40
12815;DHT22;6472;52.328;13.070;2022-08-06T14:07:06;25.40;52.10
12815;DHT22;6472;52.328;13.070;2022-08-06T14:09:35;25.00;51.60
12815;DHT22;6472;52.328;13.070;2022-08-06T14:12:23;25.10;50.00
12815;DHT22;6472;52.328;13.070;2022-08-06T14:14:57;25.00;50.50
12815;DHT22;6472;52.328;13.070;2022-08-06T14:17:25;25.20;51.80
12815;DHT22;6472;52.328;13.070;2022-08-06T14:20:01;25.20;50.70
12815;DHT22;6472;52.328;13.070;2022-08-06T14:22:36;25.10;51.00
12815;DHT22;6472;52.328;13.070;2022-08-06T14:25:09;25.00;50.50
12815;DHT22;6472;52.328;13.070;2022-08-06T14:27:39;24.90;51.20
12815;DHT22;6472;52.328;13.070;2022-08-06T14:30:12;24.90;52.00
12815;DHT22;6472;52.328;13.070;2022-08-06T14:32:59;24.80;52.80
12815;DHT22;6472;52.328;13.070;2022-08-06T14:35:36;24.50;51.80
12815;DHT22;6472;52.328;13.070;2022-08-06T14:38:18;23.80;52.00
12815;DHT22;6472;52.328;13.070;2022-08-06T14:40:58;23.90;53.50
12815;DHT22;6472;52.328;13.070;2022-08-06T14:44:04;23.70;51.90
12815;DHT22;6472;52.328;13.070;2022-08-06T14:46:52;23.30;53.00
12815;DHT22;6472;52.328;13.070;2022-08-06T14:49:20;22.90;53.30
12815;DHT22;6472;52.328;13.070;2022-08-06T14:51:48;22.90;53.60
12815;DHT22;6472;52.328;13.070;2022-08-06T14:54:37;23.10;54.20
12815;DHT22;6472;52.328;13.070;2022-08-06T14:57:09;23.20;52.90
12815;DHT22;6472;52.328;13.070;2022-08-06T14:59:42;23.30;52.30
12815;DHT22;6472;52.328;13.070;2022-08-06T15:02:21;23.30;50.60
12815;DHT22;6472;52.328;13.070;2022-08-06T15:04:53;23.30;51.30
12815;DHT22;6472;52.328;13.070;2022-08-06T15:07:22;23.30;52.10
12815;DHT22;6472;52.328;13.070;2022-08-06T15:10:08;23.30;52.90
12815;DHT22;6472;52.328;13.070;2022-08-06T15:12:55;23.20;52.80
12815;DHT22;6472;52.328;13.070;2022-08-06T15:15:28;23.30;53.00
12815;DHT22;6472;52.328;13.070;2022-08-06T15:18:15;23.30;52.50
12815;DHT22;6472;52.328;13.070;2022-08-06T15:21:04;23.30;52.80
12815;DHT22;6472;52.328;13.070;2022-08-06T15:23:43;23.10;52.00
12815;DHT22;6472;52.328;13.070;2022-08-06T15:26:21;23.00;51.80
12815;DHT22;6472;52.328;13.070;2022-08-06T15:29:10;22.90;53.00
12815;DHT22;6472;52.328;13.070;2022-08-06T15:31:42;22.60;51.60
12815;DHT22;6472;52.328;13.070;2022-08-06T15:34:11;22.60;52.80
12815;DHT22;6472;52.328;13.070;2022-08-06T15:36:53;22.50;51.70
12815;DHT22;6472;52.328;13.070;2022-08-06T15:39:29;22.40;53.00
12815;DHT22;6472;52.328;13.070;2022-08-06T15:42:19;22.50;53.10
12815;DHT22;6472;52.328;13.070;2022-08-06T15:44:48;22.60;52.10
12815;DHT22;6472;52.328;13.070;2022-08-06T15:47:17;22.60;51.90
12815;DHT22;6472;52.328;13.070;2022-08-06T15:49:59;22.50;52.20
12815;DHT22;6472;52.328;13.070;2022-08-06T15:52:31;22.40;52.30
12815;DHT22;6472;52.328;13.070;2022-08-06T15:55:04;22.40;52.40
12815;DHT22;6472;52.328;13.070;2022-08-06T15:57:43;22.40;51.90
12815;DHT22;6472;52.328;13.070;2022-08-06T16:00:31;22.30;52.60
12815;DHT22;6472;52.328;13.070;2022-08-06T16:03:03;22.30;52.80
12815;DHT22;6472;52.328;13.070;2022-08-06T16:05:36;22.20;53.10
12815;DHT22;6472;52.328;13.070;2022-08-06T16:08:24;22.30;54.20
12815;DHT22;6472;52.328;13.070;2022-08-06T16:11:07;22.30;52.50
12815;DHT22;6472;52.328;13.070;2022-08-06T16:13:36;22.40;53.40
12815;DHT22;6472;52.328;13.070;2022-08-06T16:16:05;22.40;53.90
12815;DHT22;6472;52.328;13.070;2022-08-06T16:18:37;22.40;54.30
12815;DHT22;6472;52.328;13.070;2022-08-06T16:21:19;22.30;52.40
12815;DHT22;6472;52.328;13.070;2022-08-06T16:23:48;22.20;53.70
12815;DHT22;6472;52.328;13.070;2022-08-06T16:26:29;22.10;52.70
12815;DHT22;6472;52.328;13.070;2022-08-06T16:29:16;22.00;53.70
12815;DHT22;6472;52.328;13.070;2022-08-06T16:31:45;21.90;54.40
12815;DHT22;6472;52.328;13.070;2022-08-06T16:34:19;21.80;54.80
12815;DHT22;6472;52.328;13.070;2022-08-06T16:36:56;21.80;53.70
12815;DHT22;6472;52.328;13.070;2022-08-06T16:39:25;21.80;54.00
12815;DHT22;6472;52.328;13.070;2022-08-06T16:42:13;21.70;53.90
12815;DHT22;6472;52.328;13.070;2022-08-06T16:44:43;21.70;55.80
12815;DHT22;6472;52.328;13.070;2022-08-06T16:47:26;21.60;55.40
12815;DHT22;6472;52.328;13.070;2022-08-06T16:50:15;21.50;55.80